sensor_id;sensor_type;location;lat;lon;timestamp;temperature;humidity
29353;DHT22;16344;50.364;8.944;2022-09-30T00:02:24;10.30;99.90
29353;DHT22;16344;50.364;8.944;2022-09-30T00:04:49;10.10;99.90
29353;DHT22;16344;50.364;8.944;2022-09-30T00:07:15;10.30;99.90
29353;DHT22;16344;50.364;8.944;2022-09-30T00:09:40;10.30;99.90
29353;DHT22;16344;50.364;8.944;2022-09-30T00:12:06;10.30;99.90
29353;DHT22;16344;50.364;8.944;2022-09-30T00:14:31;10.30;99.90
29353;DHT22;16344;50.364;8.944;2022-09-30T00:16:57;10.30;99.90
29353;DHT22;16344;50.364;8.944;2022-09-30T00:19:23;10.30;99.90
29353;DHT22;16344;50.364;8.944;2022-09-30T00:21:49;10.20;99.90
29353;DHT22;16344;50.364;8.944;2022-09-30T00:24:15;10.10;99.90
29353;DHT22;16344;50.364;8.944;2022-09-30T00:26:40;10.10;99.90
29353;DHT22;16344;50.364;8.944;2022-09-30T00:29:06;10.20;99.90
29353;DHT22;16344;50.364;8.944;2022-09-30T00:31:33;10.10;99.90
29353;DHT22;16344;50.364;8.944;2022-09-30T00:34:00;10.00;99.90
29353;DHT22;16344;50.364;8.944;2022-09-30T00:36:38;10.00;99.90
29353;DHT22;16344;50.364;8.944;2022-09-30T00:39:05;9.90;99.90
29353;DHT22;16344;50.364;8.944;2022-09-30T00:41:32;9.90;99.90
29353;DHT22;16344;50.364;8.944;2022-09-30T00:43:59;9.80;99.90
29353;DHT22;16344;50.364;8.944;2022-09-30T00:46:34;9.80;99.90
29353;DHT22;16344;50.364;8.944;2022-09-30T00:49:08;9.80;99.90
29353;DHT22;16344;50.364;8.944;2022-09-30T00:51:40;9.80;99.90
29353;DHT22;16344;50.364;8.944;2022-09-30T00:54:18;9.80;99.90
29353;DHT22;16344;50.364;8.944;2022-09-30T00:56:49;9.90;99.90
29353;DHT22;16344;50.364;8.944;2022-09-30T00:59:20;9.90;99.90
29353;DHT22;16344;50.364;8.944;2022-09-30T01:01:49;9.80;99.90
29353;DHT22;16344;50.364;8.944;2022-09-30T01:04:17;9.90;99.90
29353;DHT22;16344;50.364;8.944;2022-09-30T01:06:45;10.00;99.90
29353;DHT22;16344;50.364;8.944;2022-09-30T01:09:11;10.10;99.90
29353;DHT22;16344;50.364;8.944;2022-09-30T01:11:37;10.00;99.90
29353;DHT22;16344;50.364;8.944;2022-09-30T01:22:35;10.20;99.90
29353;DHT22;16344;50.364;8.944;2022-09-30T01:47:45;9.80;99.90
29353;DHT22;16344;50.364;8.944;2022-09-30T01:50:35;9.90;99.90
29353;DHT22;16344;50.364;8.944;2022-09-30T01:55:44;10.00;99.90
29353;DHT22;16344;50.364;8.944;2022-09-30T01:59:02;9.80;99.90
29353;DHT22;16344;50.364;8.944;2022-09-30T02:01:04;9.80;99.90
29353;DHT22;16344;50.364;8.944;2022-09-30T02:03:37;9.80;99.90
29353;DHT22;16344;50.364;8.944;2022-09-30T02:06:07;9.80;99.90
29353;DHT22;16344;50.364;8.944;2022-09-30T02:08:41;9.60;99.90
29353;DHT22;16344;50.364;8.944;2022-09-30T02:16:23;9.60;99.90
29353;DHT22;16344;50.364;8.944;2022-09-30T02:18:51;9.40;99.90
29353;DHT22;16344;50.364;8.944;2022-09-30T02:21:25;9.40;99.90
29353;DHT22;16344;50.364;8.944;2022-09-30T02:23:56;9.40;99.90
29353;DHT22;16344;50.364;8.944;2022-09-30T02:26:27;9.40;99.90
29353;DHT22;16344;50.364;8.944;2022-09-30T02:29:02;9.50;99.90
29353;DHT22;16344;50.364;8.944;2022-09-30T02:31:31;9.50;99.90
29353;DHT22;16344;50.364;8.944;2022-09-30T02:34:20;9.50;99.90
29353;DHT22;16344;50.364;8.944;2022-09-30T02:37:03;9.50;99.90
29353;DHT22;16344;50.364;8.944;2022-09-30T02:42:01;9.40;99.90
29353;DHT22;16344;50.364;8.944;2022-09-30T02:44:28;9.30;99.90
29353;DHT22;16344;50.364;8.944;2022-09-30T02:47:10;9.40;99.90
29353;DHT22;16344;50.364;8.944;2022-09-30T02:49:45;9.30;99.90
29353;DHT22;16344;50.364;8.944;2022-09-30T02:57:52;9.20;99.90
29353;DHT22;16344;50.364;8.944;2022-09-30T03:00:20;9.10;99.90
29353;DHT22;16344;50.364;8.944;2022-09-30T03:02:45;9.20;99.90
29353;DHT22;16344;50.364;8.944;2022-09-30T03:05:11;9.20;99.90
29353;DHT22;16344;50.364;8.944;2022-09-30T03:07:37;9.10;99.90
29353;DHT22;16344;50.364;8.944;2022-09-30T03:10:13;9.00;99.90
29353;DHT22;16344;50.364;8.944;2022-09-30T03:18:56;8.80;99.90
29353;DHT22;16344;50.364;8.944;2022-09-30T03:24:34;8.90;99.90
29353;DHT22;16344;50.364;8.944;2022-09-30T03:27:29;8.90;99.90
29353;DHT22;16344;50.364;8.944;2022-09-30T03:32:51;9.00;99.90
29353;DHT22;16344;50.364;8.944;2022-09-30T03:41:16;9.00;99.90
29353;DHT22;16344;50.364;8.944;2022-09-30T03:46:38;8.90;99.90
29353;DHT22;16344;50.364;8.944;2022-09-30T03:49:09;8.90;99.90
29353;DHT22;16344;50.364;8.944;2022-09-30T03:51:39;8.70;99.90
29353;DHT22;16344;50.364;8.944;2022-09-30T03:54:12;8.80;99.90
29353;DHT22;16344;50.364;8.944;2022-09-30T03:56:39;8.70;99.90
29353;DHT22;16344;50.364;8.944;2022-09-30T03:59:25;8.70;99.90
29353;DHT22;16344;50.364;8.944;2022-09-30T04:01:52;8.60;99.90
29353;DHT22;16344;50.364;8.944;2022-09-30T04:04:18;8.60;99.90
29353;DHT22;16344;50.364;8.944;2022-09-30T04:06:44;8.50;99.90
29353;DHT22;16344;50.364;8.944;2022-09-30T04:09:09;8.60;99.90
29353;DHT22;16344;50.364;8.944;2022-09-30T04:11:35;8.70;99.90
29353;DHT22;16344;50.364;8.944;2022-09-30T04:14:01;8.80;99.90
29353;DHT22;16344;50.364;8.944;2022-09-30T04:16:30;8.80;99.90
29353;DHT22;16344;50.364;8.944;2022-09-30T04:18:56;8.80;99.90
29353;DHT22;16344;50.364;8.944;2022-09-30T04:21:22;8.90;99.90
29353;DHT22;16344;50.364;8.944;2022-09-30T04:23:48;8.90;99.90
29353;DHT22;16344;50.364;8.944;2022-09-30T04:26:16;8.80;99.90
29353;DHT22;16344;50.364;8.944;2022-09-30T04:28:42;8.80;99.90
29353;DHT22;16344;50.364;8.944;2022-09-30T04:31:10;8.60;99.90
29353;DHT22;16344;50.364;8.944;2022-09-30T04:33:37;8.60;99.90
29353;DHT22;16344;50.364;8.944;2022-09-30T04:36:03;8.60;99.90
29353;DHT22;16344;50.364;8.944;2022-09-30T04:38:28;8.70;99.90
29353;DHT22;16344;50.364;8.944;2022-09-30T04:40:55;8.70;99.90
29353;DHT22;16344;50.364;8.944;2022-09-30T04:43:21;8.60;99.90
29353;DHT22;16344;50.364;8.944;2022-09-30T04:45:48;8.60;99.90
29353;DHT22;16344;50.364;8.944;2022-09-30T04:48:15;8.60;99.90
29353;DHT22;16344;50.364;8.944;2022-09-30T04:50:41;8.70;99.90
29353;DHT22;16344;50.364;8.944;2022-09-30T04:53:08;8.70;99.90
29353;DHT22;16344;50.364;8.944;2022-09-30T04:55:36;8.70;99.90
29353;DHT22;16344;50.364;8.944;2022-09-30T04:58:01;8.70;99.90
29353;DHT22;16344;50.364;8.944;2022-09-30T05:00:27;8.60;99.90
29353;DHT22;16344;50.364;8.944;2022-09-30T05:02:52;8.60;99.90
29353;DHT22;16344;50.364;8.944;2022-09-30T05:05:18;8.70;99.90
29353;DHT22;16344;50.364;8.944;2022-09-30T05:07:44;8.60;99.90
29353;DHT22;16344;50.364;8.944;2022-09-30T05:10:10;8.60;99.90
29353;DHT22;16344;50.364;8.944;2022-09-30T05:12:37;8.60;99.90
29353;DHT22;16344;50.364;8.944;2022-09-30T05:15:06;8.60;99.90
29353;DHT22;16344;50.364;8.944;2022-09-30T05:17:32;8.40;99.90
29353;DHT22;16344;50.364;8.944;2022-09-30T05:19:58;8.30;99.90
29353;DHT22;16344;50.364;8.944;2022-09-30T05:22:24;8.30;99.90
29353;DHT22;16344;50.364;8.944;2022-09-30T05:24:50;8.20;99.90
29353;DHT22;16344;50.364;8.944;2022-09-30T05:27:17;8.10;99.90
29353;DHT22;16344;50.364;8.944;2022-09-30T05:29:43;8.00;99.90
29353;DHT22;16344;50.364;8.944;2022-09-30T05:32:09;8.10;99.90
29353;DHT22;16344;50.364;8.944;2022-09-30T05:34:35;8.20;99.90
29353;DHT22;16344;50.364;8.944;2022-09-30T05:37:02;8.10;99.90
29353;DHT22;16344;50.364;8.944;2022-09-30T05:39:28;8.20;99.90
29353;DHT22;16344;50.364;8.944;2022-09-30T05:41:55;8.40;99.90
29353;DHT22;16344;50.364;8.944;2022-09-30T05:44:21;8.70;99.90
29353;DHT22;16344;50.364;8.944;2022-09-30T05:46:46;9.10;99.90
29353;DHT22;16344;50.364;8.944;2022-09-30T05:49:12;9.40;99.90
29353;DHT22;16344;50.364;8.944;2022-09-30T05:51:37;9.90;99.90
29353;DHT22;16344;50.364;8.944;2022-09-30T05:54:03;10.60;99.90
29353;DHT22;16344;50.364;8.944;2022-09-30T05:56:29;11.40;97.50
29353;DHT22;16344;50.364;8.944;2022-09-30T05:58:54;12.40;1.00
29353;DHT22;16344;50.364;8.944;2022-09-30T06:01:20;13.30;1.00
29353;DHT22;16344;50.364;8.944;2022-09-30T06:03:46;14.30;1.00
29353;DHT22;16344;50.364;8.944;2022-09-30T06:06:12;15.20;1.00
29353;DHT22;16344;50.364;8.944;2022-09-30T06:08:38;16.20;1.00
29353;DHT22;16344;50.364;8.944;2022-09-30T06:11:09;16.90;1.00
29353;DHT22;16344;50.364;8.944;2022-09-30T06:13:36;17.90;1.00
29353;DHT22;16344;50.364;8.944;2022-09-30T06:16:02;18.40;1.00
29353;DHT22;16344;50.364;8.944;2022-09-30T06:18:28;18.90;1.00
29353;DHT22;16344;50.364;8.944;2022-09-30T06:20:56;18.50;1.00
29353;DHT22;16344;50.364;8.944;2022-09-30T06:23:22;18.80;1.00
29353;DHT22;16344;50.364;8.944;2022-09-30T06:25:52;19.30;1.00
29353;DHT22;16344;50.364;8.944;2022-09-30T06:28:19;19.80;1.00
29353;DHT22;16344;50.364;8.944;2022-09-30T06:30:44;20.00;1.00
29353;DHT22;16344;50.364;8.944;2022-09-30T06:33:10;20.00;1.00
29353;DHT22;16344;50.364;8.944;2022-09-30T06:35:36;19.40;1.00
29353;DHT22;16344;50.364;8.944;2022-09-30T06:38:02;19.40;1.00
29353;DHT22;16344;50.364;8.944;2022-09-30T06:40:27;18.90;1.00
29353;DHT22;16344;50.364;8.944;2022-09-30T06:43:00;18.70;1.00
29353;DHT22;16344;50.364;8.944;2022-09-30T06:45:27;18.50;1.00
29353;DHT22;16344;50.364;8.944;2022-09-30T06:47:58;17.70;1.00
29353;DHT22;16344;50.364;8.944;2022-09-30T06:50:24;16.90;1.00
29353;DHT22;16344;50.364;8.944;2022-09-30T06:52:49;16.10;1.00
29353;DHT22;16344;50.364;8.944;2022-09-30T06:55:16;15.30;1.00
29353;DHT22;16344;50.364;8.944;2022-09-30T06:57:42;14.50;1.00
29353;DHT22;16344;50.364;8.944;2022-09-30T07:00:11;14.10;1.00
29353;DHT22;16344;50.364;8.944;2022-09-30T07:02:36;13.40;1.00
29353;DHT22;16344;50.364;8.944;2022-09-30T07:05:04;13.10;1.00
29353;DHT22;16344;50.364;8.944;2022-09-30T07:07:30;12.70;1.00
29353;DHT22;16344;50.364;8.944;2022-09-30T07:09:59;12.50;1.00
29353;DHT22;16344;50.364;8.944;2022-09-30T07:12:24;12.00;1.00
29353;DHT22;16344;50.364;8.944;2022-09-30T07:14:51;11.80;19.50
29353;DHT22;16344;50.364;8.944;2022-09-30T07:17:17;11.60;61.10
29353;DHT22;16344;50.364;8.944;2022-09-30T07:19:42;11.70;99.90
29353;DHT22;16344;50.364;8.944;2022-09-30T07:22:08;11.80;99.90
29353;DHT22;16344;50.364;8.944;2022-09-30T07:24:53;11.80;99.90
29353;DHT22;16344;50.364;8.944;2022-09-30T07:27:18;11.90;99.90
29353;DHT22;16344;50.364;8.944;2022-09-30T07:29:45;11.90;99.90
29353;DHT22;16344;50.364;8.944;2022-09-30T07:32:11;12.10;99.90
29353;DHT22;16344;50.364;8.944;2022-09-30T07:34:37;12.30;99.90
29353;DHT22;16344;50.364;8.944;2022-09-30T07:37:03;12.30;99.90
29353;DHT22;16344;50.364;8.944;2022-09-30T07:39:29;12.30;99.90
29353;DHT22;16344;50.364;8.944;2022-09-30T07:41:55;12.50;99.90
29353;DHT22;16344;50.364;8.944;2022-09-30T07:44:21;12.70;99.90
29353;DHT22;16344;50.364;8.944;2022-09-30T07:46:49;12.50;99.90
29353;DHT22;16344;50.364;8.944;2022-09-30T07:49:16;12.50;99.90
29353;DHT22;16344;50.364;8.944;2022-09-30T07:51:51;12.60;99.90
29353;DHT22;16344;50.364;8.944;2022-09-30T07:54:19;12.60;99.90
29353;DHT22;16344;50.364;8.944;2022-09-30T07:56:47;12.70;99.90
29353;DHT22;16344;50.364;8.944;2022-09-30T07:59:12;12.70;99.90
29353;DHT22;16344;50.364;8.944;2022-09-30T08:01:38;12.90;99.90
29353;DHT22;16344;50.364;8.944;2022-09-30T08:04:07;13.10;99.90
29353;DHT22;16344;50.364;8.944;2022-09-30T08:06:40;13.40;99.90
29353;DHT22;16344;50.364;8.944;2022-09-30T08:09:07;13.50;99.90
29353;DHT22;16344;50.364;8.944;2022-09-30T08:11:34;13.50;99.90
29353;DHT22;16344;50.364;8.944;2022-09-30T08:14:00;13.70;99.90
29353;DHT22;16344;50.364;8.944;2022-09-30T08:16:26;13.70;99.90
29353;DHT22;16344;50.364;8.944;2022-09-30T08:18:56;13.80;99.90
29353;DHT22;16344;50.364;8.944;2022-09-30T08:21:22;13.80;61.10
29353;DHT22;16344;50.364;8.944;2022-09-30T08:23:48;13.50;99.90
29353;DHT22;16344;50.364;8.944;2022-09-30T08:26:14;13.30;99.90
29353;DHT22;16344;50.364;8.944;2022-09-30T08:28:41;13.00;99.90
29353;DHT22;16344;50.364;8.944;2022-09-30T08:31:12;12.90;99.90
29353;DHT22;16344;50.364;8.944;2022-09-30T08:33:39;13.20;99.90
29353;DHT22;16344;50.364;8.944;2022-09-30T08:36:07;13.20;99.90
29353;DHT22;16344;50.364;8.944;2022-09-30T08:38:33;13.50;99.90
29353;DHT22;16344;50.364;8.944;2022-09-30T08:41:52;13.60;99.90
29353;DHT22;16344;50.364;8.944;2022-09-30T08:49:19;14.00;99.90
29353;DHT22;16344;50.364;8.944;2022-09-30T08:51:47;14.00;98.70
29353;DHT22;16344;50.364;8.944;2022-09-30T08:54:20;14.10;99.90
29353;DHT22;16344;50.364;8.944;2022-09-30T08:56:48;14.30;99.90
29353;DHT22;16344;50.364;8.944;2022-09-30T08:59:37;14.30;90.20
29353;DHT22;16344;50.364;8.944;2022-09-30T09:02:26;14.60;99.90
29353;DHT22;16344;50.364;8.944;2022-09-30T09:04:59;14.80;21.60
29353;DHT22;16344;50.364;8.944;2022-09-30T09:20:56;14.80;92.80
29353;DHT22;16344;50.364;8.944;2022-09-30T09:23:30;14.90;68.40
29353;DHT22;16344;50.364;8.944;2022-09-30T09:25:57;14.80;99.90
29353;DHT22;16344;50.364;8.944;2022-09-30T09:28:48;15.00;98.80
29353;DHT22;16344;50.364;8.944;2022-09-30T09:31:17;15.10;5.70
29353;DHT22;16344;50.364;8.944;2022-09-30T09:33:43;15.10;99.90
29353;DHT22;16344;50.364;8.944;2022-09-30T09:39:06;15.30;99.90
29353;DHT22;16344;50.364;8.944;2022-09-30T09:46:58;15.40;79.00
29353;DHT22;16344;50.364;8.944;2022-09-30T09:49:33;15.50;74.80
29353;DHT22;16344;50.364;8.944;2022-09-30T09:57:20;15.90;5.30
29353;DHT22;16344;50.364;8.944;2022-09-30T10:00:08;16.00;1.00
29353;DHT22;16344;50.364;8.944;2022-09-30T10:03:00;16.10;1.00
29353;DHT22;16344;50.364;8.944;2022-09-30T10:05:27;16.10;1.00
29353;DHT22;16344;50.364;8.944;2022-09-30T10:10:50;16.10;1.00
29353;DHT22;16344;50.364;8.944;2022-09-30T10:15:51;16.10;44.10
29353;DHT22;16344;50.364;8.944;2022-09-30T10:21:27;16.40;32.40
29353;DHT22;16344;50.364;8.944;2022-09-30T10:23:45;16.40;99.90
29353;DHT22;16344;50.364;8.944;2022-09-30T10:28:48;16.50;35.40
29353;DHT22;16344;50.364;8.944;2022-09-30T10:31:37;16.60;1.00
29353;DHT22;16344;50.364;8.944;2022-09-30T10:34:29;16.50;1.00
29353;DHT22;16344;50.364;8.944;2022-09-30T10:37:00;16.60;1.00
29353;DHT22;16344;50.364;8.944;2022-09-30T10:39:29;16.70;1.00
29353;DHT22;16344;50.364;8.944;2022-09-30T10:44:46;17.00;1.00
29353;DHT22;16344;50.364;8.944;2022-09-30T10:47:16;16.90;1.00
29353;DHT22;16344;50.364;8.944;2022-09-30T10:49:47;16.80;1.00
29353;DHT22;16344;50.364;8.944;2022-09-30T10:52:18;16.70;1.00
29353;DHT22;16344;50.364;8.944;2022-09-30T10:54:59;16.70;1.00
29353;DHT22;16344;50.364;8.944;2022-09-30T10:57:27;16.50;1.00
29353;DHT22;16344;50.364;8.944;2022-09-30T10:59:59;16.70;1.00
29353;DHT22;16344;50.364;8.944;2022-09-30T11:02:53;16.70;1.00
29353;DHT22;16344;50.364;8.944;2022-09-30T11:05:21;16.80;1.00
29353;DHT22;16344;50.364;8.944;2022-09-30T11:21:52;17.20;1.00
29353;DHT22;16344;50.364;8.944;2022-09-30T11:27:25;17.20;1.00
29353;DHT22;16344;50.364;8.944;2022-09-30T11:38:09;17.50;1.00
29353;DHT22;16344;50.364;8.944;2022-09-30T11:46:32;17.50;1.00
29353;DHT22;16344;50.364;8.944;2022-09-30T11:49:16;17.40;1.00
29353;DHT22;16344;50.364;8.944;2022-09-30T11:51:46;17.50;1.00
29353;DHT22;16344;50.364;8.944;2022-09-30T11:57:23;17.50;1.00
29353;DHT22;16344;50.364;8.944;2022-09-30T12:00:16;17.60;1.00
29353;DHT22;16344;50.364;8.944;2022-09-30T12:02:45;17.70;1.00
29353;DHT22;16344;50.364;8.944;2022-09-30T12:05:26;17.80;1.00
29353;DHT22;16344;50.364;8.944;2022-09-30T12:08:13;17.70;1.00
29353;DHT22;16344;50.364;8.944;2022-09-30T12:13:34;18.10;1.00
29353;DHT22;16344;50.364;8.944;2022-09-30T12:16:02;18.20;1.00
29353;DHT22;16344;50.364;8.944;2022-09-30T12:18:41;18.00;1.00
29353;DHT22;16344;50.364;8.944;2022-09-30T12:21:19;17.90;1.00
29353;DHT22;16344;50.364;8.944;2022-09-30T12:23:58;18.00;1.00
29353;DHT22;16344;50.364;8.944;2022-09-30T12:26:25;17.90;1.00
29353;DHT22;16344;50.364;8.944;2022-09-30T12:28:57;18.00;1.00
29353;DHT22;16344;50.364;8.944;2022-09-30T12:40:33;17.90;1.00
29353;DHT22;16344;50.364;8.944;2022-09-30T12:48:54;17.60;1.00
29353;DHT22;16344;50.364;8.944;2022-09-30T12:51:30;17.60;1.00
29353;DHT22;16344;50.364;8.944;2022-09-30T12:54:00;17.60;1.00
29353;DHT22;16344;50.364;8.944;2022-09-30T12:56:29;17.70;1.00
29353;DHT22;16344;50.364;8.944;2022-09-30T12:58:55;17.70;1.00
29353;DHT22;16344;50.364;8.944;2022-09-30T13:01:27;18.00;1.00
29353;DHT22;16344;50.364;8.944;2022-09-30T13:06:24;18.10;1.00
29353;DHT22;16344;50.364;8.944;2022-09-30T13:09:15;18.00;1.00
29353;DHT22;16344;50.364;8.944;2022-09-30T13:11:46;18.00;1.00
29353;DHT22;16344;50.364;8.944;2022-09-30T13:14:34;18.10;1.00
29353;DHT22;16344;50.364;8.944;2022-09-30T13:19:37;18.20;1.00
29353;DHT22;16344;50.364;8.944;2022-09-30T13:27:48;18.00;1.00
29353;DHT22;16344;50.364;8.944;2022-09-30T13:43:17;18.30;1.00
29353;DHT22;16344;50.364;8.944;2022-09-30T13:45:47;18.20;1.00
29353;DHT22;16344;50.364;8.944;2022-09-30T13:48:16;18.10;1.00
29353;DHT22;16344;50.364;8.944;2022-09-30T13:50:55;18.20;1.00
29353;DHT22;16344;50.364;8.944;2022-09-30T13:53:37;18.10;1.00
29353;DHT22;16344;50.364;8.944;2022-09-30T13:56:07;18.00;1.00
29353;DHT22;16344;50.364;8.944;2022-09-30T14:02:03;18.10;1.00
29353;DHT22;16344;50.364;8.944;2022-09-30T14:10:33;18.00;1.00
29353;DHT22;16344;50.364;8.944;2022-09-30T14:16:45;18.00;1.00
29353;DHT22;16344;50.364;8.944;2022-09-30T14:22:07;18.00;1.00
29353;DHT22;16344;50.364;8.944;2022-09-30T14:24:36;18.00;1.00
29353;DHT22;16344;50.364;8.944;2022-09-30T14:27:27;17.90;1.00
29353;DHT22;16344;50.364;8.944;2022-09-30T14:35:00;17.60;1.00
29353;DHT22;16344;50.364;8.944;2022-09-30T14:37:31;17.60;1.00
29353;DHT22;16344;50.364;8.944;2022-09-30T14:39:59;17.60;1.00
29353;DHT22;16344;50.364;8.944;2022-09-30T14:42:31;17.70;1.00
29353;DHT22;16344;50.364;8.944;2022-09-30T14:45:01;17.90;1.00
29353;DHT22;16344;50.364;8.944;2022-09-30T14:47:38;18.00;1.00
29353;DHT22;16344;50.364;8.944;2022-09-30T14:50:10;18.00;1.00
29353;DHT22;16344;50.364;8.944;2022-09-30T14:52:44;17.90;1.00
29353;DHT22;16344;50.364;8.944;2022-09-30T14:55:18;17.90;1.00
29353;DHT22;16344;50.364;8.944;2022-09-30T14:57:47;17.80;1.00
29353;DHT22;16344;50.364;8.944;2022-09-30T15:00:34;17.90;1.00
29353;DHT22;16344;50.364;8.944;2022-09-30T15:03:01;17.90;1.00
29353;DHT22;16344;50.364;8.944;2022-09-30T15:05:27;17.80;1.00
29353;DHT22;16344;50.364;8.944;2022-09-30T15:07:53;17.80;1.00
29353;DHT22;16344;50.364;8.944;2022-09-30T15:10:22;18.00;1.00
29353;DHT22;16344;50.364;8.944;2022-09-30T15:12:49;18.10;1.00
29353;DHT22;16344;50.364;8.944;2022-09-30T15:15:31;18.00;1.00
29353;DHT22;16344;50.364;8.944;2022-09-30T15:17:57;18.10;1.00
29353;DHT22;16344;50.364;8.944;2022-09-30T15:22:50;18.00;1.00
29353;DHT22;16344;50.364;8.944;2022-09-30T15:25:18;18.00;1.00
29353;DHT22;16344;50.364;8.944;2022-09-30T15:27:45;18.10;1.00
29353;DHT22;16344;50.364;8.944;2022-09-30T15:32:39;18.20;1.00
29353;DHT22;16344;50.364;8.944;2022-09-30T15:35:06;18.40;1.00
29353;DHT22;16344;50.364;8.944;2022-09-30T15:37:36;18.30;1.00
29353;DHT22;16344;50.364;8.944;2022-09-30T15:40:02;18.30;1.00
29353;DHT22;16344;50.364;8.944;2022-09-30T15:42:55;18.30;1.00
29353;DHT22;16344;50.364;8.944;2022-09-30T15:45:30;18.40;1.00
29353;DHT22;16344;50.364;8.944;2022-09-30T15:48:06;18.20;1.00
29353;DHT22;16344;50.364;8.944;2022-09-30T15:50:52;18.30;1.00
29353;DHT22;16344;50.364;8.944;2022-09-30T15:53:45;18.10;1.00
29353;DHT22;16344;50.364;8.944;2022-09-30T15:58:44;18.10;1.00
29353;DHT22;16344;50.364;8.944;2022-09-30T16:01:33;18.10;1.00
29353;DHT22;16344;50.364;8.944;2022-09-30T16:06:46;18.00;1.00
29353;DHT22;16344;50.364;8.944;2022-09-30T16:09:31;18.00;1.00
29353;DHT22;16344;50.364;8.944;2022-09-30T16:12:05;18.00;1.00
29353;DHT22;16344;50.364;8.944;2022-09-30T16:14:47;18.00;1.00
29353;DHT22;16344;50.364;8.944;2022-09-30T16:17:34;17.90;1.00
29353;DHT22;16344;50.364;8.944;2022-09-30T16:20:23;17.80;1.00
29353;DHT22;16344;50.364;8.944;2022-09-30T16:22:53;17.70;1.00
29353;DHT22;16344;50.364;8.944;2022-09-30T16:25:32;17.60;1.00
29353;DHT22;16344;50.364;8.944;2022-09-30T16:27:58;17.70;1.00
29353;DHT22;16344;50.364;8.944;2022-09-30T16:30:25;17.60;1.00
29353;DHT22;16344;50.364;8.944;2022-09-30T16:32:56;17.40;1.00
29353;DHT22;16344;50.364;8.944;2022-09-30T16:35:24;17.30;1.00
29353;DHT22;16344;50.364;8.944;2022-09-30T16:37:58;17.40;1.00
29353;DHT22;16344;50.364;8.944;2022-09-30T16:40:25;17.20;1.00
29353;DHT22;16344;50.364;8.944;2022-09-30T16:42:52;17.20;1.00
29353;DHT22;16344;50.364;8.944;2022-09-30T16:45:24;17.10;1.00
29353;DHT22;16344;50.364;8.944;2022-09-30T16:47:49;17.10;1.00
29353;DHT22;16344;50.364;8.944;2022-09-30T16:52:50;17.10;1.00
29353;DHT22;16344;50.364;8.944;2022-09-30T16:55:15;17.00;1.00
29353;DHT22;16344;50.364;8.944;2022-09-30T16:57:41;17.00;1.00
29353;DHT22;16344;50.364;8.944;2022-09-30T17:00:09;16.90;1.00
29353;DHT22;16344;50.364;8.944;2022-09-30T17:02:35;16.70;1.00
29353;DHT22;16344;50.364;8.944;2022-09-30T17:05:02;16.70;1.00
29353;DHT22;16344;50.364;8.944;2022-09-30T17:07:27;16.60;1.00
29353;DHT22;16344;50.364;8.944;2022-09-30T17:09:55;16.60;1.00
29353;DHT22;16344;50.364;8.944;2022-09-30T17:12:20;16.90;1.00
29353;DHT22;16344;50.364;8.944;2022-09-30T17:14:46;16.80;1.00
29353;DHT22;16344;50.364;8.944;2022-09-30T17:17:11;16.90;1.00
29353;DHT22;16344;50.364;8.944;2022-09-30T17:19:37;16.90;1.00
29353;DHT22;16344;50.364;8.944;2022-09-30T17:22:03;16.80;1.00
29353;DHT22;16344;50.364;8.944;2022-09-30T17:24:29;16.80;1.00
29353;DHT22;16344;50.364;8.944;2022-09-30T17:26:55;16.80;1.00
29353;DHT22;16344;50.364;8.944;2022-09-30T17:29:20;16.70;1.00
29353;DHT22;16344;50.364;8.944;2022-09-30T17:31:46;16.70;1.00
29353;DHT22;16344;50.364;8.944;2022-09-30T17:34:11;16.70;1.00
29353;DHT22;16344;50.364;8.944;2022-09-30T17:36:37;16.60;1.00
29353;DHT22;16344;50.364;8.944;2022-09-30T17:39:02;16.50;1.00
29353;DHT22;16344;50.364;8.944;2022-09-30T17:41:29;16.50;1.00
29353;DHT22;16344;50.364;8.944;2022-09-30T17:44:13;16.40;1.00
29353;DHT22;16344;50.364;8.944;2022-09-30T17:46:43;16.40;1.00
29353;DHT22;16344;50.364;8.944;2022-09-30T17:49:13;16.30;1.00
29353;DHT22;16344;50.364;8.944;2022-09-30T17:51:42;16.30;1.00
29353;DHT22;16344;50.364;8.944;2022-09-30T17:54:07;16.20;1.00
29353;DHT22;16344;50.364;8.944;2022-09-30T17:56:33;16.10;1.00
29353;DHT22;16344;50.364;8.944;2022-09-30T17:58:59;16.00;1.00
29353;DHT22;16344;50.364;8.944;2022-09-30T18:01:27;16.20;1.00
29353;DHT22;16344;50.364;8.944;2022-09-30T18:03:58;16.20;1.00
29353;DHT22;16344;50.364;8.944;2022-09-30T18:06:23;16.10;1.00
29353;DHT22;16344;50.364;8.944;2022-09-30T18:08:50;16.10;1.00
29353;DHT22;16344;50.364;8.944;2022-09-30T18:11:23;16.00;1.00
29353;DHT22;16344;50.364;8.944;2022-09-30T18:13:53;16.00;1.00
29353;DHT22;16344;50.364;8.944;2022-09-30T18:16:20;15.90;1.00
29353;DHT22;16344;50.364;8.944;2022-09-30T18:18:46;15.80;1.00
29353;DHT22;16344;50.364;8.944;2022-09-30T18:21:11;15.90;1.00
29353;DHT22;16344;50.364;8.944;2022-09-30T18:23:37;15.70;1.00
29353;DHT22;16344;50.364;8.944;2022-09-30T18:26:02;15.70;1.00
29353;DHT22;16344;50.364;8.944;2022-09-30T18:28:28;15.60;1.00
29353;DHT22;16344;50.364;8.944;2022-09-30T18:30:54;15.60;1.00
29353;DHT22;16344;50.364;8.944;2022-09-30T18:33:19;15.60;1.00
29353;DHT22;16344;50.364;8.944;2022-09-30T18:35:46;15.70;1.00
29353;DHT22;16344;50.364;8.944;2022-09-30T18:38:12;15.70;1.00
29353;DHT22;16344;50.364;8.944;2022-09-30T18:40:40;15.70;1.00
29353;DHT22;16344;50.364;8.944;2022-09-30T18:43:08;15.70;1.00
29353;DHT22;16344;50.364;8.944;2022-09-30T18:45:37;15.70;1.00
29353;DHT22;16344;50.364;8.944;2022-09-30T18:48:03;15.50;1.00
29353;DHT22;16344;50.364;8.944;2022-09-30T18:50:30;15.40;1.00
29353;DHT22;16344;50.364;8.944;2022-09-30T18:52:57;15.30;1.00
29353;DHT22;16344;50.364;8.944;2022-09-30T18:55:23;15.20;1.00
29353;DHT22;16344;50.364;8.944;2022-09-30T18:57:52;15.20;1.00
29353;DHT22;16344;50.364;8.944;2022-09-30T19:00:18;15.30;1.00
29353;DHT22;16344;50.364;8.944;2022-09-30T19:02:44;15.30;1.00
29353;DHT22;16344;50.364;8.944;2022-09-30T19:05:12;15.10;1.00
29353;DHT22;16344;50.364;8.944;2022-09-30T19:07:38;15.10;1.00
29353;DHT22;16344;50.364;8.944;2022-09-30T19:10:07;15.30;1.00
29353;DHT22;16344;50.364;8.944;2022-09-30T19:12:35;15.30;1.00
29353;DHT22;16344;50.364;8.944;2022-09-30T19:15:05;15.20;1.00
29353;DHT22;16344;50.364;8.944;2022-09-30T19:17:32;15.30;1.00
29353;DHT22;16344;50.364;8.944;2022-09-30T19:19:58;15.20;1.00
29353;DHT22;16344;50.364;8.944;2022-09-30T19:22:25;15.10;1.00
29353;DHT22;16344;50.364;8.944;2022-09-30T19:24:51;15.10;1.00
29353;DHT22;16344;50.364;8.944;2022-09-30T19:27:17;15.00;1.00
29353;DHT22;16344;50.364;8.944;2022-09-30T19:29:43;15.00;1.00
29353;DHT22;16344;50.364;8.944;2022-09-30T19:32:08;15.00;1.00
29353;DHT22;16344;50.364;8.944;2022-09-30T19:34:37;15.00;1.00
29353;DHT22;16344;50.364;8.944;2022-09-30T19:37:03;15.00;1.00
29353;DHT22;16344;50.364;8.944;2022-09-30T19:39:28;14.90;1.00
29353;DHT22;16344;50.364;8.944;2022-09-30T19:41:54;15.00;1.00
29353;DHT22;16344;50.364;8.944;2022-09-30T19:44:20;14.90;1.00